sensor_id;sensor_type;location;lat;lon;timestamp;P1;durP1;ratioP1;P2;durP2;ratioP2
66327;SDS011;53133;52.862;6.602;2023-03-23T00:01:23;13.80;;;10.18;;
66327;SDS011;53133;52.862;6.602;2023-03-23T00:03:52;14.82;;;10.00;;
66327;SDS011;53133;52.862;6.602;2023-03-23T00:06:21;13.80;;;9.48;;
66327;SDS011;53133;52.862;6.602;2023-03-23T00:08:48;15.02;;;10.07;;
66327;SDS011;53133;52.862;6.602;2023-03-23T00:11:20;16.25;;;9.57;;
66327;SDS011;53133;52.862;6.602;2023-03-23T00:13:48;11.88;;;10.13;;
66327;SDS011;53133;52.862;6.602;2023-03-23T00:16:19;14.68;;;9.30;;
66327;SDS011;53133;52.862;6.602;2023-03-23T00:18:54;15.38;;;9.18;;
66327;SDS011;53133;52.862;6.602;2023-03-23T00:21:21;15.80;;;9.80;;
66327;SDS011;53133;52.862;6.602;2023-03-23T00:24:17;13.73;;;9.27;;
66327;SDS011;53133;52.862;6.602;2023-03-23T00:26:44;18.58;;;9.27;;
66327;SDS011;53133;52.862;6.602;2023-03-23T00:29:15;13.05;;;9.18;;
66327;SDS011;53133;52.862;6.602;2023-03-23T00:31:44;12.23;;;8.75;;
66327;SDS011;53133;52.862;6.602;2023-03-23T00:34:14;11.85;;;8.93;;
66327;SDS011;53133;52.862;6.602;2023-03-23T00:36:44;13.98;;;8.93;;
66327;SDS011;53133;52.862;6.602;2023-03-23T00:39:15;11.65;;;8.50;;
66327;SDS011;53133;52.862;6.602;2023-03-23T00:41:42;11.20;;;8.25;;
66327;SDS011;53133;52.862;6.602;2023-03-23T00:44:09;12.45;;;8.35;;
66327;SDS011;53133;52.862;6.602;2023-03-23T00:46:35;15.45;;;8.02;;
66327;SDS011;53133;52.862;6.602;2023-03-23T00:49:10;14.88;;;8.38;;
66327;SDS011;53133;52.862;6.602;2023-03-23T00:51:40;14.18;;;7.35;;
66327;SDS011;53133;52.862;6.602;2023-03-23T00:54:06;11.32;;;7.40;;
66327;SDS011;53133;52.862;6.602;2023-03-23T00:56:31;10.80;;;7.22;;
66327;SDS011;53133;52.862;6.602;2023-03-23T00:58:57;13.15;;;7.15;;
66327;SDS011;53133;52.862;6.602;2023-03-23T01:01:23;12.48;;;7.60;;
66327;SDS011;53133;52.862;6.602;2023-03-23T01:03:50;10.32;;;6.88;;
66327;SDS011;53133;52.862;6.602;2023-03-23T01:06:15;11.60;;;6.65;;
66327;SDS011;53133;52.862;6.602;2023-03-23T01:08:41;9.32;;;6.40;;
66327;SDS011;53133;52.862;6.602;2023-03-23T01:11:13;10.88;;;6.60;;
66327;SDS011;53133;52.862;6.602;2023-03-23T01:13:43;10.48;;;5.65;;
66327;SDS011;53133;52.862;6.602;2023-03-23T01:16:09;10.38;;;5.60;;
66327;SDS011;53133;52.862;6.602;2023-03-23T01:18:35;8.20;;;5.25;;
66327;SDS011;53133;52.862;6.602;2023-03-23T01:21:06;10.38;;;5.85;;
66327;SDS011;53133;52.862;6.602;2023-03-23T01:23:33;8.80;;;5.33;;
66327;SDS011;53133;52.862;6.602;2023-03-23T01:26:12;9.07;;;5.50;;
66327;SDS011;53133;52.862;6.602;2023-03-23T01:28:40;9.10;;;5.68;;
66327;SDS011;53133;52.862;6.602;2023-03-23T01:31:08;8.68;;;4.82;;
66327;SDS011;53133;52.862;6.602;2023-03-23T01:33:37;11.48;;;5.88;;
66327;SDS011;53133;52.862;6.602;2023-03-23T01:36:07;7.90;;;4.88;;
66327;SDS011;53133;52.862;6.602;2023-03-23T01:38:35;8.60;;;4.78;;
66327;SDS011;53133;52.862;6.602;2023-03-23T01:41:02;10.80;;;4.53;;
66327;SDS011;53133;52.862;6.602;2023-03-23T01:43:28;7.28;;;4.55;;
66327;SDS011;53133;52.862;6.602;2023-03-23T01:45:54;6.45;;;4.20;;
66327;SDS011;53133;52.862;6.602;2023-03-23T01:48:22;7.05;;;4.32;;
66327;SDS011;53133;52.862;6.602;2023-03-23T01:50:58;6.07;;;4.05;;
66327;SDS011;53133;52.862;6.602;2023-03-23T01:53:42;7.47;;;4.18;;
66327;SDS011;53133;52.862;6.602;2023-03-23T01:56:11;7.72;;;4.70;;
66327;SDS011;53133;52.862;6.602;2023-03-23T01:58:39;6.88;;;4.65;;
66327;SDS011;53133;52.862;6.602;2023-03-23T02:01:07;7.13;;;4.82;;
66327;SDS011;53133;52.862;6.602;2023-03-23T02:03:41;11.18;;;4.85;;
66327;SDS011;53133;52.862;6.602;2023-03-23T02:06:09;8.07;;;4.28;;
66327;SDS011;53133;52.862;6.602;2023-03-23T02:08:35;8.52;;;4.70;;
66327;SDS011;53133;52.862;6.602;2023-03-23T02:11:11;8.52;;;4.45;;
66327;SDS011;53133;52.862;6.602;2023-03-23T02:13:41;11.07;;;4.45;;
66327;SDS011;53133;52.862;6.602;2023-03-23T02:19:13;9.25;;;4.60;;
66327;SDS011;53133;52.862;6.602;2023-03-23T02:24:41;8.93;;;4.10;;
66327;SDS011;53133;52.862;6.602;2023-03-23T02:35:22;8.15;;;4.25;;
66327;SDS011;53133;52.862;6.602;2023-03-23T02:37:57;8.15;;;4.40;;
66327;SDS011;53133;52.862;6.602;2023-03-23T02:42:57;6.53;;;4.10;;
66327;SDS011;53133;52.862;6.602;2023-03-23T02:45:24;7.38;;;4.05;;
66327;SDS011;53133;52.862;6.602;2023-03-23T02:47:54;7.55;;;3.55;;
66327;SDS011;53133;52.862;6.602;2023-03-23T02:50:21;8.10;;;3.53;;
66327;SDS011;53133;52.862;6.602;2023-03-23T02:52:49;8.70;;;3.85;;
66327;SDS011;53133;52.862;6.602;2023-03-23T02:55:17;6.10;;;3.88;;
66327;SDS011;53133;52.862;6.602;2023-03-23T02:57:45;6.90;;;4.38;;
66327;SDS011;53133;52.862;6.602;2023-03-23T03:00:12;8.32;;;3.75;;
66327;SDS011;53133;52.862;6.602;2023-03-23T03:02:41;8.05;;;3.80;;
66327;SDS011;53133;52.862;6.602;2023-03-23T03:08:15;6.63;;;4.38;;
66327;SDS011;53133;52.862;6.602;2023-03-23T03:11:11;6.07;;;4.00;;
66327;SDS011;53133;52.862;6.602;2023-03-23T03:18:46;7.38;;;4.35;;
66327;SDS011;53133;52.862;6.602;2023-03-23T03:21:22;8.88;;;4.40;;
66327;SDS011;53133;52.862;6.602;2023-03-23T03:23:53;5.85;;;4.47;;
66327;SDS011;53133;52.862;6.602;2023-03-23T03:26:23;9.23;;;5.10;;
66327;SDS011;53133;52.862;6.602;2023-03-23T03:28:54;8.60;;;4.95;;
66327;SDS011;53133;52.862;6.602;2023-03-23T03:31:21;8.38;;;4.93;;
66327;SDS011;53133;52.862;6.602;2023-03-23T03:33:51;8.60;;;4.43;;
66327;SDS011;53133;52.862;6.602;2023-03-23T03:36:21;7.32;;;4.70;;
66327;SDS011;53133;52.862;6.602;2023-03-23T03:38:52;5.68;;;4.28;;
66327;SDS011;53133;52.862;6.602;2023-03-23T03:41:18;7.38;;;4.15;;
66327;SDS011;53133;52.862;6.602;2023-03-23T03:43:45;8.63;;;4.50;;
66327;SDS011;53133;52.862;6.602;2023-03-23T03:46:11;9.48;;;5.20;;
66327;SDS011;53133;52.862;6.602;2023-03-23T03:48:36;8.77;;;4.25;;
66327;SDS011;53133;52.862;6.602;2023-03-23T03:51:02;6.15;;;4.55;;
66327;SDS011;53133;52.862;6.602;2023-03-23T03:53:29;6.68;;;4.55;;
66327;SDS011;53133;52.862;6.602;2023-03-23T03:55:55;7.00;;;4.25;;
66327;SDS011;53133;52.862;6.602;2023-03-23T03:58:24;6.93;;;4.40;;
66327;SDS011;53133;52.862;6.602;2023-03-23T04:03:23;9.05;;;4.97;;
66327;SDS011;53133;52.862;6.602;2023-03-23T04:05:50;6.68;;;4.60;;
66327;SDS011;53133;52.862;6.602;2023-03-23T04:08:16;9.15;;;5.05;;
66327;SDS011;53133;52.862;6.602;2023-03-23T04:10:42;6.72;;;4.55;;
66327;SDS011;53133;52.862;6.602;2023-03-23T04:13:08;8.25;;;5.10;;
66327;SDS011;53133;52.862;6.602;2023-03-23T04:15:34;7.85;;;5.05;;
66327;SDS011;53133;52.862;6.602;2023-03-23T04:17:59;8.73;;;5.57;;
66327;SDS011;53133;52.862;6.602;2023-03-23T04:20:25;7.22;;;5.72;;
66327;SDS011;53133;52.862;6.602;2023-03-23T04:22:51;8.32;;;5.85;;
66327;SDS011;53133;52.862;6.602;2023-03-23T04:25:20;10.90;;;5.70;;
66327;SDS011;53133;52.862;6.602;2023-03-23T04:27:47;8.38;;;5.35;;
66327;SDS011;53133;52.862;6.602;2023-03-23T04:30:17;7.18;;;5.25;;
66327;SDS011;53133;52.862;6.602;2023-03-23T04:32:45;10.48;;;5.15;;
66327;SDS011;53133;52.862;6.602;2023-03-23T04:35:12;8.27;;;5.43;;
66327;SDS011;53133;52.862;6.602;2023-03-23T04:37:39;7.32;;;5.35;;
66327;SDS011;53133;52.862;6.602;2023-03-23T04:40:06;9.25;;;5.70;;
66327;SDS011;53133;52.862;6.602;2023-03-23T04:42:36;7.55;;;5.60;;
66327;SDS011;53133;52.862;6.602;2023-03-23T04:45:02;8.25;;;5.78;;
66327;SDS011;53133;52.862;6.602;2023-03-23T04:47:31;7.78;;;5.47;;
66327;SDS011;53133;52.862;6.602;2023-03-23T04:49:59;8.10;;;5.50;;
66327;SDS011;53133;52.862;6.602;2023-03-23T04:52:26;8.65;;;5.57;;
66327;SDS011;53133;52.862;6.602;2023-03-23T04:54:53;9.90;;;5.65;;
66327;SDS011;53133;52.862;6.602;2023-03-23T04:57:22;8.45;;;5.30;;
66327;SDS011;53133;52.862;6.602;2023-03-23T04:59:50;10.75;;;5.57;;
66327;SDS011;53133;52.862;6.602;2023-03-23T05:02:16;25.42;;;8.35;;
66327;SDS011;53133;52.862;6.602;2023-03-23T05:04:42;14.57;;;8.00;;
66327;SDS011;53133;52.862;6.602;2023-03-23T05:07:07;11.43;;;5.68;;
66327;SDS011;53133;52.862;6.602;2023-03-23T05:09:33;8.55;;;4.10;;
66327;SDS011;53133;52.862;6.602;2023-03-23T05:12:04;9.48;;;3.72;;
66327;SDS011;53133;52.862;6.602;2023-03-23T05:14:31;9.07;;;3.72;;
66327;SDS011;53133;52.862;6.602;2023-03-23T05:16:56;7.85;;;3.60;;
66327;SDS011;53133;52.862;6.602;2023-03-23T05:19:22;10.52;;;3.97;;
66327;SDS011;53133;52.862;6.602;2023-03-23T05:21:47;6.28;;;3.25;;
66327;SDS011;53133;52.862;6.602;2023-03-23T05:24:13;7.18;;;3.45;;
66327;SDS011;53133;52.862;6.602;2023-03-23T05:26:38;11.13;;;3.80;;
66327;SDS011;53133;52.862;6.602;2023-03-23T05:29:04;9.55;;;3.20;;
66327;SDS011;53133;52.862;6.602;2023-03-23T05:31:30;11.50;;;3.70;;
66327;SDS011;53133;52.862;6.602;2023-03-23T05:33:55;9.50;;;3.60;;
66327;SDS011;53133;52.862;6.602;2023-03-23T05:36:21;13.52;;;3.63;;
66327;SDS011;53133;52.862;6.602;2023-03-23T05:38:48;11.07;;;3.65;;
66327;SDS011;53133;52.862;6.602;2023-03-23T05:41:15;7.65;;;3.65;;
66327;SDS011;53133;52.862;6.602;2023-03-23T05:43:41;9.48;;;3.90;;
66327;SDS011;53133;52.862;6.602;2023-03-23T05:46:07;14.93;;;3.65;;
66327;SDS011;53133;52.862;6.602;2023-03-23T05:48:33;13.63;;;3.97;;
66327;SDS011;53133;52.862;6.602;2023-03-23T05:50:59;11.52;;;3.90;;
66327;SDS011;53133;52.862;6.602;2023-03-23T05:53:25;13.52;;;3.20;;
66327;SDS011;53133;52.862;6.602;2023-03-23T05:55:51;12.82;;;3.30;;
66327;SDS011;53133;52.862;6.602;2023-03-23T05:58:17;13.38;;;3.03;;
66327;SDS011;53133;52.862;6.602;2023-03-23T06:00:43;12.88;;;2.95;;
66327;SDS011;53133;52.862;6.602;2023-03-23T06:03:10;8.98;;;2.80;;
66327;SDS011;53133;52.862;6.602;2023-03-23T06:05:41;13.13;;;3.35;;
66327;SDS011;53133;52.862;6.602;2023-03-23T06:08:10;11.45;;;2.63;;
66327;SDS011;53133;52.862;6.602;2023-03-23T06:10:36;16.08;;;3.50;;
66327;SDS011;53133;52.862;6.602;2023-03-23T06:13:02;12.52;;;3.08;;
66327;SDS011;53133;52.862;6.602;2023-03-23T06:15:28;12.77;;;3.53;;
66327;SDS011;53133;52.862;6.602;2023-03-23T06:18:02;10.25;;;3.15;;
66327;SDS011;53133;52.862;6.602;2023-03-23T06:20:28;6.00;;;3.30;;
66327;SDS011;53133;52.862;6.602;2023-03-23T06:22:55;10.45;;;3.10;;
66327;SDS011;53133;52.862;6.602;2023-03-23T06:25:21;8.80;;;3.25;;
66327;SDS011;53133;52.862;6.602;2023-03-23T06:27:48;10.25;;;4.13;;
66327;SDS011;53133;52.862;6.602;2023-03-23T06:30:14;11.85;;;3.50;;
66327;SDS011;53133;52.862;6.602;2023-03-23T06:32:40;11.25;;;2.88;;
66327;SDS011;53133;52.862;6.602;2023-03-23T06:35:07;10.07;;;3.17;;
66327;SDS011;53133;52.862;6.602;2023-03-23T06:37:35;17.42;;;4.18;;
66327;SDS011;53133;52.862;6.602;2023-03-23T06:40:02;9.25;;;3.08;;
66327;SDS011;53133;52.862;6.602;2023-03-23T06:42:31;11.38;;;3.30;;
66327;SDS011;53133;52.862;6.602;2023-03-23T06:44:57;22.88;;;4.70;;
66327;SDS011;53133;52.862;6.602;2023-03-23T06:47:23;13.23;;;3.45;;
66327;SDS011;53133;52.862;6.602;2023-03-23T06:49:49;17.63;;;3.72;;
66327;SDS011;53133;52.862;6.602;2023-03-23T06:52:15;18.02;;;3.80;;
66327;SDS011;53133;52.862;6.602;2023-03-23T06:54:41;15.18;;;3.50;;
66327;SDS011;53133;52.862;6.602;2023-03-23T06:57:07;12.20;;;3.63;;
66327;SDS011;53133;52.862;6.602;2023-03-23T06:59:33;17.98;;;4.25;;
66327;SDS011;53133;52.862;6.602;2023-03-23T07:01:58;17.67;;;4.25;;
66327;SDS011;53133;52.862;6.602;2023-03-23T07:04:24;20.08;;;4.25;;
66327;SDS011;53133;52.862;6.602;2023-03-23T07:06:49;16.65;;;3.92;;
66327;SDS011;53133;52.862;6.602;2023-03-23T07:09:15;14.50;;;4.25;;
66327;SDS011;53133;52.862;6.602;2023-03-23T07:11:41;22.85;;;5.10;;
66327;SDS011;53133;52.862;6.602;2023-03-23T07:14:07;16.80;;;3.78;;
66327;SDS011;53133;52.862;6.602;2023-03-23T07:16:33;18.85;;;3.95;;
66327;SDS011;53133;52.862;6.602;2023-03-23T07:18:59;15.27;;;4.20;;
66327;SDS011;53133;52.862;6.602;2023-03-23T07:21:24;21.40;;;4.30;;
66327;SDS011;53133;52.862;6.602;2023-03-23T07:23:51;16.33;;;4.40;;
66327;SDS011;53133;52.862;6.602;2023-03-23T07:26:16;18.88;;;4.20;;
66327;SDS011;53133;52.862;6.602;2023-03-23T07:28:42;18.95;;;4.93;;
66327;SDS011;53133;52.862;6.602;2023-03-23T07:31:08;16.15;;;4.40;;
66327;SDS011;53133;52.862;6.602;2023-03-23T07:33:34;10.88;;;4.03;;
66327;SDS011;53133;52.862;6.602;2023-03-23T07:36:01;16.02;;;4.78;;
66327;SDS011;53133;52.862;6.602;2023-03-23T07:38:27;18.58;;;4.35;;
66327;SDS011;53133;52.862;6.602;2023-03-23T07:40:54;17.52;;;4.68;;
66327;SDS011;53133;52.862;6.602;2023-03-23T07:43:21;27.35;;;5.38;;
66327;SDS011;53133;52.862;6.602;2023-03-23T07:45:47;15.50;;;4.78;;
66327;SDS011;53133;52.862;6.602;2023-03-23T07:48:13;21.17;;;4.15;;
66327;SDS011;53133;52.862;6.602;2023-03-23T07:50:39;18.02;;;4.65;;
66327;SDS011;53133;52.862;6.602;2023-03-23T07:53:05;14.98;;;4.35;;
66327;SDS011;53133;52.862;6.602;2023-03-23T07:55:31;18.35;;;4.38;;
66327;SDS011;53133;52.862;6.602;2023-03-23T07:57:56;15.77;;;4.25;;
66327;SDS011;53133;52.862;6.602;2023-03-23T08:00:22;24.23;;;5.13;;
66327;SDS011;53133;52.862;6.602;2023-03-23T08:02:52;19.05;;;3.85;;
66327;SDS011;53133;52.862;6.602;2023-03-23T08:05:23;24.92;;;4.53;;
66327;SDS011;53133;52.862;6.602;2023-03-23T08:07:51;21.20;;;4.50;;
66327;SDS011;53133;52.862;6.602;2023-03-23T08:10:19;19.92;;;4.65;;
66327;SDS011;53133;52.862;6.602;2023-03-23T08:12:50;21.25;;;4.25;;
66327;SDS011;53133;52.862;6.602;2023-03-23T08:15:17;21.60;;;4.43;;
66327;SDS011;53133;52.862;6.602;2023-03-23T08:17:42;24.88;;;5.18;;
66327;SDS011;53133;52.862;6.602;2023-03-23T08:20:09;20.52;;;4.40;;
66327;SDS011;53133;52.862;6.602;2023-03-23T08:22:39;18.23;;;4.43;;
66327;SDS011;53133;52.862;6.602;2023-03-23T08:25:06;23.67;;;4.22;;
66327;SDS011;53133;52.862;6.602;2023-03-23T08:27:33;14.50;;;3.90;;
66327;SDS011;53133;52.862;6.602;2023-03-23T08:29:58;25.95;;;4.78;;
66327;SDS011;53133;52.862;6.602;2023-03-23T08:32:24;20.98;;;4.88;;
66327;SDS011;53133;52.862;6.602;2023-03-23T08:34:51;15.57;;;4.25;;
66327;SDS011;53133;52.862;6.602;2023-03-23T08:37:17;13.23;;;3.80;;
66327;SDS011;53133;52.862;6.602;2023-03-23T08:39:43;17.25;;;4.13;;
66327;SDS011;53133;52.862;6.602;2023-03-23T08:42:09;19.73;;;4.57;;
66327;SDS011;53133;52.862;6.602;2023-03-23T08:44:36;23.50;;;4.90;;
66327;SDS011;53133;52.862;6.602;2023-03-23T08:47:02;20.02;;;4.70;;
66327;SDS011;53133;52.862;6.602;2023-03-23T08:49:29;17.50;;;4.97;;
66327;SDS011;53133;52.862;6.602;2023-03-23T08:51:57;19.63;;;5.10;;
66327;SDS011;53133;52.862;6.602;2023-03-23T08:54:23;21.65;;;5.03;;
66327;SDS011;53133;52.862;6.602;2023-03-23T08:56:49;23.10;;;5.75;;
66327;SDS011;53133;52.862;6.602;2023-03-23T08:59:16;24.45;;;5.38;;
66327;SDS011;53133;52.862;6.602;2023-03-23T09:01:41;22.98;;;5.90;;
66327;SDS011;53133;52.862;6.602;2023-03-23T09:04:07;19.60;;;5.18;;
66327;SDS011;53133;52.862;6.602;2023-03-23T09:06:34;24.08;;;5.57;;
66327;SDS011;53133;52.862;6.602;2023-03-23T09:09:03;21.40;;;5.18;;
66327;SDS011;53133;52.862;6.602;2023-03-23T09:11:32;24.95;;;5.43;;
66327;SDS011;53133;52.862;6.602;2023-03-23T09:13:58;18.50;;;4.78;;
66327;SDS011;53133;52.862;6.602;2023-03-23T09:16:24;22.85;;;5.15;;
66327;SDS011;53133;52.862;6.602;2023-03-23T09:18:50;19.15;;;4.78;;
66327;SDS011;53133;52.862;6.602;2023-03-23T09:21:15;19.98;;;5.47;;
66327;SDS011;53133;52.862;6.602;2023-03-23T09:23:41;24.63;;;4.90;;
66327;SDS011;53133;52.862;6.602;2023-03-23T09:26:09;26.35;;;4.95;;
66327;SDS011;53133;52.862;6.602;2023-03-23T09:28:35;19.52;;;4.78;;
66327;SDS011;53133;52.862;6.602;2023-03-23T09:31:01;16.60;;;5.35;;
66327;SDS011;53133;52.862;6.602;2023-03-23T09:33:26;21.27;;;5.28;;
66327;SDS011;53133;52.862;6.602;2023-03-23T09:35:57;25.75;;;5.90;;
66327;SDS011;53133;52.862;6.602;2023-03-23T09:38:23;15.55;;;4.25;;
66327;SDS011;53133;52.862;6.602;2023-03-23T09:46:40;21.08;;;4.47;;
66327;SDS011;53133;52.862;6.602;2023-03-23T09:49:38;20.10;;;4.43;;
66327;SDS011;53133;52.862;6.602;2023-03-23T09:52:56;19.10;;;5.07;;
66327;SDS011;53133;52.862;6.602;2023-03-23T09:55:40;19.63;;;4.85;;
66327;SDS011;53133;52.862;6.602;2023-03-23T10:00:36;21.40;;;4.38;;
66327;SDS011;53133;52.862;6.602;2023-03-23T10:03:15;22.20;;;11.48;;
66327;SDS011;53133;52.862;6.602;2023-03-23T10:05:51;24.17;;;7.75;;
66327;SDS011;53133;52.862;6.602;2023-03-23T10:08:19;27.05;;;9.10;;
66327;SDS011;53133;52.862;6.602;2023-03-23T10:16:30;19.33;;;4.40;;
66327;SDS011;53133;52.862;6.602;2023-03-23T10:19:04;13.07;;;4.10;;
66327;SDS011;53133;52.862;6.602;2023-03-23T10:21:33;25.23;;;4.85;;
66327;SDS011;53133;52.862;6.602;2023-03-23T10:24:03;19.20;;;4.97;;
66327;SDS011;53133;52.862;6.602;2023-03-23T10:33:02;15.70;;;3.95;;
66327;SDS011;53133;52.862;6.602;2023-03-23T10:35:43;13.70;;;3.70;;
66327;SDS011;53133;52.862;6.602;2023-03-23T10:38:26;15.25;;;3.85;;
66327;SDS011;53133;52.862;6.602;2023-03-23T10:41:05;16.42;;;4.78;;
66327;SDS011;53133;52.862;6.602;2023-03-23T10:43:36;15.65;;;3.63;;
66327;SDS011;53133;52.862;6.602;2023-03-23T10:46:05;16.80;;;4.03;;
66327;SDS011;53133;52.862;6.602;2023-03-23T10:49:02;10.23;;;3.88;;
66327;SDS011;53133;52.862;6.602;2023-03-23T10:51:37;11.90;;;3.58;;
66327;SDS011;53133;52.862;6.602;2023-03-23T10:54:06;9.77;;;3.70;;
66327;SDS011;53133;52.862;6.602;2023-03-23T10:59:27;16.08;;;4.38;;
66327;SDS011;53133;52.862;6.602;2023-03-23T11:01:57;17.70;;;4.22;;
66327;SDS011;53133;52.862;6.602;2023-03-23T11:04:28;16.40;;;3.72;;
66327;SDS011;53133;52.862;6.602;2023-03-23T11:06:58;13.98;;;2.90;;
66327;SDS011;53133;52.862;6.602;2023-03-23T11:09:37;16.25;;;3.72;;
66327;SDS011;53133;52.862;6.602;2023-03-23T11:12:04;10.95;;;3.22;;
66327;SDS011;53133;52.862;6.602;2023-03-23T11:14:41;13.27;;;3.85;;
66327;SDS011;53133;52.862;6.602;2023-03-23T11:17:19;18.23;;;4.13;;
66327;SDS011;53133;52.862;6.602;2023-03-23T11:19:54;15.18;;;4.10;;
66327;SDS011;53133;52.862;6.602;2023-03-23T11:22:25;13.88;;;3.95;;
66327;SDS011;53133;52.862;6.602;2023-03-23T11:24:54;13.98;;;3.78;;
66327;SDS011;53133;52.862;6.602;2023-03-23T11:27:21;14.93;;;3.22;;
66327;SDS011;53133;52.862;6.602;2023-03-23T11:29:50;11.88;;;3.40;;
66327;SDS011;53133;52.862;6.602;2023-03-23T11:32:19;15.10;;;3.72;;
66327;SDS011;53133;52.862;6.602;2023-03-23T11:34:52;14.02;;;3.67;;
66327;SDS011;53133;52.862;6.602;2023-03-23T11:42:56;12.57;;;3.80;;
66327;SDS011;53133;52.862;6.602;2023-03-23T11:45:34;13.48;;;3.67;;
66327;SDS011;53133;52.862;6.602;2023-03-23T11:51:30;12.65;;;3.65;;
66327;SDS011;53133;52.862;6.602;2023-03-23T11:56:41;12.95;;;3.35;;
66327;SDS011;53133;52.862;6.602;2023-03-23T11:59:12;10.85;;;2.83;;
66327;SDS011;53133;52.862;6.602;2023-03-23T12:01:50;14.88;;;3.20;;
66327;SDS011;53133;52.862;6.602;2023-03-23T12:04:50;16.55;;;3.00;;
66327;SDS011;53133;52.862;6.602;2023-03-23T12:10:32;9.13;;;3.20;;
66327;SDS011;53133;52.862;6.602;2023-03-23T12:21:14;14.70;;;3.42;;
66327;SDS011;53133;52.862;6.602;2023-03-23T12:26:54;11.95;;;3.35;;
66327;SDS011;53133;52.862;6.602;2023-03-23T12:29:33;10.68;;;3.25;;
66327;SDS011;53133;52.862;6.602;2023-03-23T12:39:50;12.85;;;3.80;;
66327;SDS011;53133;52.862;6.602;2023-03-23T12:48:12;16.42;;;4.53;;
66327;SDS011;53133;52.862;6.602;2023-03-23T12:50:58;10.35;;;3.10;;
66327;SDS011;53133;52.862;6.602;2023-03-23T12:53:52;13.52;;;3.42;;
66327;SDS011;53133;52.862;6.602;2023-03-23T12:56:52;12.40;;;3.38;;
66327;SDS011;53133;52.862;6.602;2023-03-23T13:05:45;12.63;;;3.55;;
66327;SDS011;53133;52.862;6.602;2023-03-23T13:08:24;11.63;;;3.38;;
66327;SDS011;53133;52.862;6.602;2023-03-23T13:10:55;13.88;;;3.38;;
66327;SDS011;53133;52.862;6.602;2023-03-23T13:13:26;7.15;;;2.85;;
66327;SDS011;53133;52.862;6.602;2023-03-23T13:21:50;14.60;;;3.65;;
66327;SDS011;53133;52.862;6.602;2023-03-23T13:24:29;13.90;;;3.60;;
66327;SDS011;53133;52.862;6.602;2023-03-23T13:26:58;11.70;;;3.38;;
66327;SDS011;53133;52.862;6.602;2023-03-23T13:29:26;9.52;;;3.08;;
66327;SDS011;53133;52.862;6.602;2023-03-23T13:32:03;10.73;;;3.70;;
66327;SDS011;53133;52.862;6.602;2023-03-23T13:34:31;13.90;;;3.67;;
66327;SDS011;53133;52.862;6.602;2023-03-23T13:36:59;17.02;;;3.83;;
66327;SDS011;53133;52.862;6.602;2023-03-23T13:39:34;14.07;;;3.70;;
66327;SDS011;53133;52.862;6.602;2023-03-23T13:56:03;12.52;;;3.45;;
66327;SDS011;53133;52.862;6.602;2023-03-23T14:03:05;11.52;;;4.00;;
66327;SDS011;53133;52.862;6.602;2023-03-23T14:05:41;22.30;;;9.13;;
66327;SDS011;53133;52.862;6.602;2023-03-23T14:13:02;11.18;;;3.25;;
66327;SDS011;53133;52.862;6.602;2023-03-23T14:15:30;15.63;;;3.30;;
66327;SDS011;53133;52.862;6.602;2023-03-23T14:18:03;12.93;;;3.42;;
66327;SDS011;53133;52.862;6.602;2023-03-23T14:20:31;11.80;;;2.75;;
66327;SDS011;53133;52.862;6.602;2023-03-23T14:22:59;11.70;;;3.03;;
66327;SDS011;53133;52.862;6.602;2023-03-23T14:25:29;12.20;;;2.80;;
66327;SDS011;53133;52.862;6.602;2023-03-23T14:27:57;9.57;;;2.58;;
66327;SDS011;53133;52.862;6.602;2023-03-23T14:30:24;9.52;;;2.70;;
66327;SDS011;53133;52.862;6.602;2023-03-23T14:32:53;9.77;;;2.50;;
66327;SDS011;53133;52.862;6.602;2023-03-23T14:35:29;14.40;;;2.92;;
66327;SDS011;53133;52.862;6.602;2023-03-23T14:37:59;8.93;;;2.58;;
66327;SDS011;53133;52.862;6.602;2023-03-23T14:40:26;8.57;;;2.78;;
66327;SDS011;53133;52.862;6.602;2023-03-23T14:42:53;12.38;;;2.78;;
66327;SDS011;53133;52.862;6.602;2023-03-23T14:45:21;8.95;;;2.83;;
66327;SDS011;53133;52.862;6.602;2023-03-23T14:47:52;8.38;;;2.58;;
66327;SDS011;53133;52.862;6.602;2023-03-23T14:50:36;11.32;;;2.97;;
66327;SDS011;53133;52.862;6.602;2023-03-23T14:53:09;10.73;;;2.60;;
66327;SDS011;53133;52.862;6.602;2023-03-23T14:55:42;11.98;;;2.75;;
66327;SDS011;53133;52.862;6.602;2023-03-23T14:58:09;7.65;;;2.60;;
66327;SDS011;53133;52.862;6.602;2023-03-23T15:00:41;9.50;;;2.80;;
66327;SDS011;53133;52.862;6.602;2023-03-23T15:03:12;12.07;;;3.63;;
66327;SDS011;53133;52.862;6.602;2023-03-23T15:05:42;15.88;;;3.72;;
66327;SDS011;53133;52.862;6.602;2023-03-23T15:08:16;11.55;;;3.33;;
66327;SDS011;53133;52.862;6.602;2023-03-23T15:10:56;9.43;;;3.08;;
66327;SDS011;53133;52.862;6.602;2023-03-23T15:13:29;13.52;;;3.40;;
66327;SDS011;53133;52.862;6.602;2023-03-23T15:16:02;10.35;;;2.92;;
66327;SDS011;53133;52.862;6.602;2023-03-23T15:18:36;14.25;;;3.28;;
66327;SDS011;53133;52.862;6.602;2023-03-23T15:21:08;10.20;;;3.25;;
66327;SDS011;53133;52.862;6.602;2023-03-23T15:23:48;12.05;;;3.03;;
66327;SDS011;53133;52.862;6.602;2023-03-23T15:26:21;12.23;;;3.10;;
66327;SDS011;53133;52.862;6.602;2023-03-23T15:28:48;10.52;;;2.88;;
66327;SDS011;53133;52.862;6.602;2023-03-23T15:31:13;12.60;;;3.22;;
66327;SDS011;53133;52.862;6.602;2023-03-23T15:33:40;12.02;;;3.15;;
66327;SDS011;53133;52.862;6.602;2023-03-23T15:36:13;11.45;;;2.60;;
66327;SDS011;53133;52.862;6.602;2023-03-23T15:38:42;15.75;;;3.08;;
66327;SDS011;53133;52.862;6.602;2023-03-23T15:41:21;10.48;;;3.33;;
66327;SDS011;53133;52.862;6.602;2023-03-23T15:43:52;10.40;;;3.15;;
66327;SDS011;53133;52.862;6.602;2023-03-23T15:46:24;13.88;;;3.45;;
66327;SDS011;53133;52.862;6.602;2023-03-23T15:51:24;10.32;;;3.50;;
66327;SDS011;53133;52.862;6.602;2023-03-23T15:53:51;14.40;;;3.67;;
66327;SDS011;53133;52.862;6.602;2023-03-23T15:56:18;15.05;;;3.63;;
66327;SDS011;53133;52.862;6.602;2023-03-23T15:58:45;12.57;;;3.53;;
66327;SDS011;53133;52.862;6.602;2023-03-23T16:01:18;11.80;;;3.63;;
66327;SDS011;53133;52.862;6.602;2023-03-23T16:03:55;11.50;;;3.28;;
66327;SDS011;53133;52.862;6.602;2023-03-23T16:06:27;12.38;;;3.38;;
66327;SDS011;53133;52.862;6.602;2023-03-23T16:08:55;10.93;;;3.92;;
66327;SDS011;53133;52.862;6.602;2023-03-23T16:11:21;13.40;;;3.22;;
66327;SDS011;53133;52.862;6.602;2023-03-23T16:13:49;12.43;;;3.30;;
66327;SDS011;53133;52.862;6.602;2023-03-23T16:16:16;8.43;;;2.95;;
66327;SDS011;53133;52.862;6.602;2023-03-23T16:18:46;8.63;;;3.25;;
66327;SDS011;53133;52.862;6.602;2023-03-23T16:21:12;14.18;;;3.30;;
66327;SDS011;53133;52.862;6.602;2023-03-23T16:23:37;18.02;;;3.78;;
66327;SDS011;53133;52.862;6.602;2023-03-23T16:26:05;45.72;;;22.33;;
66327;SDS011;53133;52.862;6.602;2023-03-23T16:28:31;19.00;;;8.40;;
66327;SDS011;53133;52.862;6.602;2023-03-23T16:30:56;31.77;;;17.50;;
66327;SDS011;53133;52.862;6.602;2023-03-23T16:33:22;27.48;;;14.18;;
66327;SDS011;53133;52.862;6.602;2023-03-23T16:35:48;41.17;;;22.05;;
66327;SDS011;53133;52.862;6.602;2023-03-23T16:38:14;23.10;;;13.13;;
66327;SDS011;53133;52.862;6.602;2023-03-23T16:40:44;28.88;;;14.93;;
66327;SDS011;53133;52.862;6.602;2023-03-23T16:43:10;15.30;;;5.47;;
66327;SDS011;53133;52.862;6.602;2023-03-23T16:45:37;14.43;;;5.80;;
66327;SDS011;53133;52.862;6.602;2023-03-23T16:48:04;13.63;;;4.78;;
66327;SDS011;53133;52.862;6.602;2023-03-23T16:50:30;16.33;;;3.45;;
66327;SDS011;53133;52.862;6.602;2023-03-23T16:52:56;12.40;;;3.90;;
66327;SDS011;53133;52.862;6.602;2023-03-23T16:55:23;12.60;;;5.20;;
66327;SDS011;53133;52.862;6.602;2023-03-23T16:57:50;12.45;;;4.13;;
66327;SDS011;53133;52.862;6.602;2023-03-23T17:00:16;10.93;;;3.58;;